createdAt,value
2023-04-30T05:02:37.343Z,7.90
2023-04-30T05:05:23.844Z,7.92
2023-04-30T05:08:10.413Z,8.11
2023-04-30T05:10:56.605Z,8.22
2023-04-30T05:13:42.778Z,8.03
2023-04-30T07:55:38.118Z,13.67
2023-04-30T07:58:24.541Z,14.00
2023-04-30T08:02:24.246Z,14.68
2023-04-30T08:05:10.687Z,14.63
2023-04-30T08:07:57.092Z,15.70
2023-04-30T08:10:44.517Z,14.34
2023-04-30T08:13:31.015Z,14.66
2023-04-30T08:16:17.431Z,15.46
2023-04-30T08:19:29.777Z,14.79
2023-04-30T08:22:16.515Z,14.70
2023-04-30T08:25:03.102Z,15.04
2023-04-30T08:27:50.930Z,15.53
2023-04-30T08:30:37.239Z,15.66
2023-04-30T08:33:24.045Z,15.35
2023-04-30T08:36:11.176Z,14.99
2023-04-30T08:38:57.447Z,15.41
2023-04-30T08:41:47.756Z,15.60
2023-04-30T08:44:37.349Z,15.48
2023-04-30T08:47:23.569Z,16.02
2023-04-30T08:50:10.795Z,15.84
2023-04-30T08:52:58.531Z,14.95
2023-04-30T08:55:45.159Z,15.63
2023-04-30T08:58:31.201Z,15.40
2023-04-30T09:01:19.119Z,15.75
2023-04-30T09:04:05.995Z,15.80
2023-04-30T09:06:54.010Z,15.91
2023-04-30T09:09:41.174Z,15.79
2023-04-30T09:12:27.763Z,15.22
2023-04-30T09:15:14.118Z,16.06
2023-04-30T09:18:13.163Z,15.82
2023-04-30T09:21:01.945Z,16.77
2023-04-30T09:23:58.114Z,16.22
2023-04-30T09:26:46.784Z,16.69
2023-04-30T09:29:38.004Z,16.32
2023-04-30T09:32:24.285Z,17.14
2023-04-30T09:35:30.573Z,17.28
2023-04-30T09:38:27.994Z,17.54
2023-04-30T09:41:26.195Z,17.73
2023-04-30T09:44:28.218Z,16.68
2023-04-30T09:47:16.574Z,17.51
2023-04-30T09:50:03.031Z,17.91
2023-04-30T09:52:54.153Z,17.95
2023-04-30T09:55:44.517Z,17.73
2023-04-30T09:58:31.844Z,17.53
2023-04-30T10:01:19.107Z,17.37
2023-04-30T10:04:06.501Z,18.09
2023-04-30T10:06:55.166Z,17.75
2023-04-30T10:09:52.654Z,17.46
2023-04-30T10:12:43.603Z,17.47
2023-04-30T10:24:54.866Z,18.37
2023-04-30T10:27:41.734Z,18.41
2023-04-30T10:30:34.244Z,17.53
2023-04-30T10:33:26.991Z,17.85
2023-04-30T10:36:19.604Z,17.86
2023-04-30T10:39:09.077Z,18.29
2023-04-30T10:42:03.558Z,18.35
2023-04-30T10:44:49.870Z,18.38
2023-04-30T10:47:37.781Z,18.62
2023-04-30T10:50:27.051Z,19.07
2023-04-30T10:53:19.805Z,19.16
2023-04-30T10:56:08.837Z,18.62
2023-04-30T10:59:01.161Z,19.13
2023-04-30T11:01:57.990Z,19.48
2023-04-30T11:05:09.797Z,19.01
2023-04-30T11:07:58.792Z,19.44
2023-04-30T11:11:01.686Z,19.69
2023-04-30T11:13:58.814Z,19.71
2023-04-30T11:16:50.411Z,20.49
2023-04-30T11:19:36.787Z,19.55
2023-04-30T11:22:24.458Z,19.79
2023-04-30T11:25:12.973Z,20.30
2023-04-30T11:27:59.597Z,19.37
2023-04-30T11:30:53.013Z,19.38
2023-04-30T11:33:41.959Z,19.49
2023-04-30T11:36:33.776Z,20.25
2023-04-30T11:39:21.178Z,20.05
2023-04-30T11:42:08.163Z,19.77
2023-04-30T11:44:54.326Z,20.05
2023-04-30T11:47:45.832Z,20.00
2023-04-30T11:50:35.185Z,20.81
2023-04-30T11:53:28.197Z,20.90
2023-04-30T11:56:14.610Z,20.57
2023-04-30T11:59:00.869Z,20.63
2023-04-30T12:01:47.426Z,20.37
2023-04-30T12:04:34.184Z,19.95
2023-04-30T12:07:22.723Z,21.37
2023-04-30T12:10:11.771Z,22.52
2023-04-30T12:12:58.234Z,21.57
2023-04-30T12:15:59.155Z,20.91
2023-04-30T12:18:45.646Z,20.83
2023-04-30T12:21:32.261Z,20.69
2023-04-30T12:24:20.621Z,21.44
2023-04-30T12:27:07.274Z,21.46
2023-04-30T12:29:55.207Z,21.42
2023-04-30T12:32:44.065Z,21.48
2023-04-30T12:35:32.535Z,21.54
2023-04-30T12:38:20.307Z,21.70
2023-04-30T12:41:13.695Z,21.85
2023-04-30T12:44:19.466Z,20.05
2023-04-30T12:47:09.907Z,20.04
2023-04-30T12:49:56.751Z,20.15
2023-04-30T12:52:46.332Z,20.12
2023-04-30T12:55:33.054Z,19.69
2023-04-30T12:58:23.404Z,19.96
2023-04-30T13:01:12.911Z,20.19
2023-04-30T13:03:59.328Z,19.65
2023-04-30T13:06:46.243Z,19.92
2023-04-30T13:09:33.891Z,20.71
2023-04-30T13:12:20.441Z,20.27
2023-04-30T13:15:09.679Z,19.95
2023-04-30T13:17:56.172Z,20.33
2023-04-30T13:20:43.607Z,20.90
2023-04-30T13:23:41.246Z,20.95
2023-04-30T13:26:35.482Z,21.61
2023-04-30T13:29:21.883Z,22.60
2023-04-30T13:32:10.090Z,22.39
2023-04-30T13:34:58.503Z,22.51
2023-04-30T13:37:44.657Z,21.30
2023-04-30T13:40:30.950Z,20.91
2023-04-30T13:43:17.034Z,20.91
2023-04-30T13:46:03.329Z,20.58
2023-04-30T13:48:53.087Z,20.27
2023-04-30T13:51:41.989Z,20.04
2023-04-30T13:54:28.196Z,19.65
2023-04-30T13:57:14.434Z,19.59
2023-04-30T14:00:00.704Z,19.94
2023-04-30T14:02:47.297Z,20.14
2023-04-30T14:05:35.037Z,20.99
2023-04-30T14:08:23.492Z,21.05
2023-04-30T14:11:09.945Z,21.49
2023-04-30T14:13:56.478Z,21.82
2023-04-30T14:16:44.291Z,22.42
2023-04-30T14:19:30.859Z,22.29
2023-04-30T14:22:18.543Z,23.72
2023-04-30T14:25:05.401Z,21.57
2023-04-30T14:27:51.673Z,20.56
2023-04-30T14:30:38.033Z,20.92
2023-04-30T14:33:24.544Z,21.29
2023-04-30T14:36:11.057Z,21.63
2023-04-30T14:38:58.516Z,21.96
2023-04-30T14:41:44.849Z,22.97
2023-04-30T14:44:32.370Z,23.50
2023-04-30T14:47:20.247Z,22.03
2023-04-30T14:50:07.408Z,22.48
2023-04-30T14:52:53.930Z,22.77
2023-04-30T14:55:41.887Z,22.63
2023-04-30T14:58:28.173Z,21.84
2023-04-30T15:04:31.055Z,22.93
2023-04-30T15:07:18.611Z,22.55
2023-04-30T15:10:05.731Z,24.32
2023-04-30T15:12:53.839Z,22.48
2023-04-30T15:15:40.530Z,22.90
2023-04-30T15:18:27.185Z,20.93
2023-04-30T15:21:13.962Z,20.88
2023-04-30T15:24:01.050Z,20.66
2023-04-30T15:26:47.492Z,20.62
2023-04-30T15:29:43.006Z,20.71
2023-04-30T15:32:31.181Z,21.80
2023-04-30T15:35:19.192Z,22.49
2023-04-30T15:38:05.682Z,22.92
2023-04-30T15:40:52.132Z,22.95
2023-04-30T15:43:38.674Z,23.15
2023-04-30T15:46:26.543Z,23.43
2023-04-30T15:49:13.143Z,24.30
2023-04-30T15:51:59.414Z,23.50
2023-04-30T15:54:46.128Z,24.35
2023-04-30T15:57:32.421Z,23.34
2023-04-30T16:00:19.243Z,22.16
2023-04-30T16:03:06.636Z,23.47
2023-04-30T16:05:53.272Z,23.28
2023-04-30T16:08:44.427Z,20.75
2023-04-30T16:11:31.659Z,20.74
2023-04-30T16:14:20.765Z,19.82
2023-04-30T16:22:01.113Z,19.56
2023-04-30T16:24:47.849Z,20.56
2023-04-30T16:27:35.801Z,21.59
2023-04-30T16:30:24.264Z,22.05
2023-04-30T16:33:11.792Z,21.33
2023-04-30T16:36:18.791Z,19.87
2023-04-30T16:39:06.577Z,20.65
2023-04-30T16:41:53.151Z,20.62
2023-04-30T16:44:39.601Z,19.61
2023-04-30T16:47:26.627Z,19.80
2023-04-30T16:50:13.051Z,20.15
2023-04-30T16:53:25.153Z,20.83
2023-04-30T16:56:19.634Z,19.85
2023-04-30T16:59:06.315Z,19.21
2023-04-30T17:01:56.228Z,19.64
2023-04-30T17:04:43.026Z,19.43
2023-04-30T17:07:29.507Z,19.06
2023-04-30T17:10:17.332Z,18.87
2023-04-30T17:13:05.634Z,19.11
2023-04-30T17:15:52.156Z,18.67
2023-04-30T17:18:54.322Z,18.65
2023-04-30T17:21:40.971Z,18.89
2023-04-30T17:24:29.936Z,18.68
2023-04-30T17:27:25.385Z,18.37
2023-04-30T17:30:13.366Z,18.77
2023-04-30T17:33:00.833Z,18.93
2023-04-30T17:35:47.491Z,18.85
2023-04-30T17:38:34.048Z,18.63
2023-04-30T17:41:21.003Z,18.69
2023-04-30T17:44:07.288Z,18.48
2023-04-30T17:46:55.254Z,18.54
2023-04-30T17:49:41.857Z,18.28
2023-04-30T17:52:28.448Z,18.72
2023-04-30T17:55:15.005Z,18.66
2023-04-30T17:58:03.761Z,18.48
2023-04-30T18:00:50.086Z,18.24
2023-04-30T18:03:38.432Z,18.40
2023-04-30T18:06:38.324Z,18.11
2023-04-30T18:09:25.171Z,18.25
2023-04-30T18:12:20.732Z,18.34
2023-04-30T18:15:08.440Z,18.19
2023-04-30T18:17:54.952Z,18.03
2023-04-30T18:20:43.134Z,18.16
2023-04-30T18:23:29.449Z,17.85
2023-04-30T18:26:20.667Z,18.29
2023-04-30T18:29:07.909Z,17.97
2023-04-30T18:31:54.421Z,17.58
2023-04-30T18:34:40.862Z,17.70
2023-04-30T18:37:29.985Z,17.68
2023-04-30T18:40:41.884Z,17.40
2023-04-30T18:43:28.293Z,17.50
2023-04-30T18:46:42.664Z,17.07
2023-04-30T18:49:29.274Z,17.04
2023-04-30T18:56:51.723Z,16.85
2023-04-30T18:59:39.300Z,16.58
2023-04-30T19:31:45.025Z,15.58
2023-04-30T19:34:31.373Z,15.65
2023-04-30T19:37:17.705Z,15.61
2023-04-30T19:40:08.306Z,15.78
2023-04-30T19:42:54.932Z,15.73
2023-04-30T19:45:44.939Z,15.56
2023-04-30T19:48:32.820Z,15.55
2023-04-30T19:51:19.813Z,15.52
2023-04-30T19:54:06.622Z,15.42
2023-04-30T19:56:53.553Z,15.26
2023-04-30T19:59:39.783Z,15.35
2023-04-30T20:11:51.542Z,15.23
2023-04-30T20:14:37.891Z,15.20
2023-04-30T20:17:24.418Z,15.05
2023-04-30T20:20:12.580Z,15.29
2023-04-30T20:22:59.483Z,15.36
2023-04-30T20:25:47.322Z,15.24
2023-04-30T20:28:36.219Z,15.37
2023-04-30T20:31:22.971Z,15.27
2023-04-30T20:34:09.299Z,15.06
2023-04-30T20:36:55.726Z,15.00
2023-04-30T20:39:43.561Z,14.97
2023-04-30T20:42:30.941Z,14.84
2023-04-30T20:45:19.532Z,14.91
2023-04-30T20:48:07.289Z,14.80
2023-04-30T20:50:53.820Z,14.91
2023-04-30T20:53:40.342Z,15.00
2023-04-30T20:56:26.989Z,14.88
2023-04-30T20:59:13.523Z,14.68
2023-04-30T21:02:01.354Z,14.75
2023-04-30T21:04:47.588Z,14.62
2023-04-30T21:07:35.235Z,14.76
2023-04-30T21:10:21.586Z,14.57
2023-04-30T21:13:08.936Z,14.54
2023-04-30T21:15:56.250Z,14.31
2023-04-30T21:18:44.389Z,14.30
2023-04-30T21:21:30.826Z,14.36
2023-04-30T21:24:17.218Z,14.46
2023-04-30T21:27:05.803Z,14.37
2023-04-30T21:29:52.284Z,14.26
2023-04-30T21:32:39.306Z,14.21
2023-04-30T21:35:28.669Z,14.15
2023-04-30T21:38:15.338Z,14.09
2023-04-30T21:41:03.119Z,14.05
2023-04-30T21:43:50.228Z,14.03
2023-04-30T21:46:37.425Z,13.83
2023-04-30T21:49:24.083Z,13.69
2023-04-30T21:52:11.614Z,13.85
2023-04-30T21:54:58.318Z,13.76
2023-04-30T21:57:46.460Z,13.96
2023-04-30T22:00:32.682Z,13.84
2023-04-30T22:03:19.174Z,13.96
2023-04-30T22:06:05.945Z,13.93
2023-04-30T22:08:53.485Z,13.85
2023-04-30T22:11:39.809Z,13.89
2023-04-30T22:14:26.255Z,13.78
2023-04-30T22:17:12.790Z,13.90
2023-04-30T22:19:59.111Z,13.93
2023-04-30T22:22:45.348Z,13.85
2023-04-30T22:25:33.308Z,13.74
2023-04-30T22:28:20.883Z,13.76
2023-04-30T22:31:07.445Z,13.90
2023-04-30T22:33:53.611Z,13.68
2023-04-30T22:36:39.789Z,13.72
2023-04-30T22:39:26.511Z,13.83
2023-04-30T22:42:14.256Z,13.76
2023-04-30T22:45:00.417Z,13.61
2023-04-30T22:47:47.040Z,13.57
2023-04-30T22:50:33.760Z,13.71
2023-04-30T22:53:19.754Z,13.58
2023-04-30T22:56:06.492Z,13.51
2023-04-30T22:58:54.412Z,13.50
2023-04-30T23:01:40.964Z,13.48
2023-04-30T23:04:28.353Z,13.35
2023-04-30T23:07:15.175Z,13.22
2023-04-30T23:10:01.830Z,13.27
2023-04-30T23:12:48.129Z,13.31
2023-04-30T23:15:35.854Z,13.30
2023-04-30T23:18:23.776Z,13.28
2023-04-30T23:21:09.872Z,13.19
2023-04-30T23:23:56.137Z,12.88
2023-04-30T23:26:42.209Z,12.61
2023-04-30T23:29:28.318Z,12.53
2023-04-30T23:32:16.182Z,12.28
2023-04-30T23:35:03.313Z,12.05
2023-04-30T23:37:49.648Z,12.02
2023-04-30T23:40:36.919Z,11.95
2023-04-30T23:43:25.205Z,11.95
2023-04-30T23:46:11.424Z,11.78
2023-04-30T23:48:59.131Z,11.70
2023-04-30T23:51:45.929Z,11.56
2023-04-30T23:54:32.851Z,11.48
2023-04-30T23:57:19.686Z,11.57
